sensor_id;sensor_type;location;lat;lon;timestamp;temperature;humidity
47114;DHT22;32867;51.556;6.832;2023-08-07T00:03:55;12.90;99.90
47114;DHT22;32867;51.556;6.832;2023-08-07T00:08:55;12.90;99.90
47114;DHT22;32867;51.556;6.832;2023-08-07T00:13:57;13.00;99.90
47114;DHT22;32867;51.556;6.832;2023-08-07T00:18:58;13.10;99.90
47114;DHT22;32867;51.556;6.832;2023-08-07T00:24:01;13.20;99.90
47114;DHT22;32867;51.556;6.832;2023-08-07T00:29:02;13.10;99.90
47114;DHT22;32867;51.556;6.832;2023-08-07T00:34:02;13.10;99.90
47114;DHT22;32867;51.556;6.832;2023-08-07T00:39:04;13.00;99.90
47114;DHT22;32867;51.556;6.832;2023-08-07T00:44:06;12.90;99.90
47114;DHT22;32867;51.556;6.832;2023-08-07T00:49:09;12.90;99.90
47114;DHT22;32867;51.556;6.832;2023-08-07T00:54:15;12.80;99.90
47114;DHT22;32867;51.556;6.832;2023-08-07T00:59:19;12.70;99.90
47114;DHT22;32867;51.556;6.832;2023-08-07T01:04:21;12.70;99.90
47114;DHT22;32867;51.556;6.832;2023-08-07T01:09:22;12.70;99.90
47114;DHT22;32867;51.556;6.832;2023-08-07T01:14:37;12.70;99.90
47114;DHT22;32867;51.556;6.832;2023-08-07T01:19:42;12.70;99.90
47114;DHT22;32867;51.556;6.832;2023-08-07T01:24:47;12.70;99.90
47114;DHT22;32867;51.556;6.832;2023-08-07T01:30:25;12.80;99.90
47114;DHT22;32867;51.556;6.832;2023-08-07T01:35:34;12.70;99.90
47114;DHT22;32867;51.556;6.832;2023-08-07T01:40:38;12.70;99.90
47114;DHT22;32867;51.556;6.832;2023-08-07T01:45:40;12.60;99.90
47114;DHT22;32867;51.556;6.832;2023-08-07T01:50:42;12.60;99.90
47114;DHT22;32867;51.556;6.832;2023-08-07T01:55:43;12.70;99.90
47114;DHT22;32867;51.556;6.832;2023-08-07T02:00:43;12.60;99.90
47114;DHT22;32867;51.556;6.832;2023-08-07T02:05:47;12.60;99.90
47114;DHT22;32867;51.556;6.832;2023-08-07T02:10:49;12.70;99.90
47114;DHT22;32867;51.556;6.832;2023-08-07T02:15:50;12.60;99.90
47114;DHT22;32867;51.556;6.832;2023-08-07T02:20:50;12.70;99.90
47114;DHT22;32867;51.556;6.832;2023-08-07T02:25:51;12.80;99.90
47114;DHT22;32867;51.556;6.832;2023-08-07T02:30:53;12.80;99.90
47114;DHT22;32867;51.556;6.832;2023-08-07T02:35:54;12.80;99.90
47114;DHT22;32867;51.556;6.832;2023-08-07T02:40:55;12.80;99.90
47114;DHT22;32867;51.556;6.832;2023-08-07T02:45:56;12.70;99.90
47114;DHT22;32867;51.556;6.832;2023-08-07T02:50:57;12.60;99.90
47114;DHT22;32867;51.556;6.832;2023-08-07T02:55:57;12.50;99.90
47114;DHT22;32867;51.556;6.832;2023-08-07T03:01:06;12.60;99.90
47114;DHT22;32867;51.556;6.832;2023-08-07T03:06:07;12.60;99.90
47114;DHT22;32867;51.556;6.832;2023-08-07T03:11:07;12.70;99.90
47114;DHT22;32867;51.556;6.832;2023-08-07T03:16:08;12.70;99.90
47114;DHT22;32867;51.556;6.832;2023-08-07T03:21:09;12.80;99.90
47114;DHT22;32867;51.556;6.832;2023-08-07T03:26:11;12.80;99.90
47114;DHT22;32867;51.556;6.832;2023-08-07T03:31:13;12.80;99.90
47114;DHT22;32867;51.556;6.832;2023-08-07T03:36:15;12.90;99.90
47114;DHT22;32867;51.556;6.832;2023-08-07T03:41:16;12.90;99.90
47114;DHT22;32867;51.556;6.832;2023-08-07T03:46:17;12.90;99.90
47114;DHT22;32867;51.556;6.832;2023-08-07T03:51:19;12.80;99.90
47114;DHT22;32867;51.556;6.832;2023-08-07T03:56:26;12.80;99.90
47114;DHT22;32867;51.556;6.832;2023-08-07T04:01:26;12.90;99.90
47114;DHT22;32867;51.556;6.832;2023-08-07T04:06:27;12.90;99.90
47114;DHT22;32867;51.556;6.832;2023-08-07T04:11:29;12.80;99.90
47114;DHT22;32867;51.556;6.832;2023-08-07T04:16:30;12.70;99.90
47114;DHT22;32867;51.556;6.832;2023-08-07T04:21:31;12.70;99.90
47114;DHT22;32867;51.556;6.832;2023-08-07T04:26:32;12.70;99.90
47114;DHT22;32867;51.556;6.832;2023-08-07T04:31:34;12.70;99.90
47114;DHT22;32867;51.556;6.832;2023-08-07T04:36:35;12.70;99.90
47114;DHT22;32867;51.556;6.832;2023-08-07T04:41:35;12.70;99.90
47114;DHT22;32867;51.556;6.832;2023-08-07T04:46:37;12.80;99.90
47114;DHT22;32867;51.556;6.832;2023-08-07T04:51:38;12.80;99.90
47114;DHT22;32867;51.556;6.832;2023-08-07T04:56:39;12.80;99.90
47114;DHT22;32867;51.556;6.832;2023-08-07T05:01:42;12.70;99.90
47114;DHT22;32867;51.556;6.832;2023-08-07T05:06:44;12.60;99.90
47114;DHT22;32867;51.556;6.832;2023-08-07T05:11:47;12.60;99.90
47114;DHT22;32867;51.556;6.832;2023-08-07T05:16:47;12.60;99.90
47114;DHT22;32867;51.556;6.832;2023-08-07T05:21:48;12.60;99.90
47114;DHT22;32867;51.556;6.832;2023-08-07T05:26:51;12.60;99.90
47114;DHT22;32867;51.556;6.832;2023-08-07T05:31:52;12.50;99.90
47114;DHT22;32867;51.556;6.832;2023-08-07T05:36:53;12.60;99.90
47114;DHT22;32867;51.556;6.832;2023-08-07T05:41:53;12.60;99.90
47114;DHT22;32867;51.556;6.832;2023-08-07T05:46:55;12.50;99.90
47114;DHT22;32867;51.556;6.832;2023-08-07T05:51:55;12.60;99.90
47114;DHT22;32867;51.556;6.832;2023-08-07T05:56:56;12.70;99.90
47114;DHT22;32867;51.556;6.832;2023-08-07T06:01:57;12.60;99.90
47114;DHT22;32867;51.556;6.832;2023-08-07T06:06:57;12.70;99.90
47114;DHT22;32867;51.556;6.832;2023-08-07T06:11:58;12.70;99.90
47114;DHT22;32867;51.556;6.832;2023-08-07T06:16:59;12.80;99.90
47114;DHT22;32867;51.556;6.832;2023-08-07T06:22:01;12.80;99.90
47114;DHT22;32867;51.556;6.832;2023-08-07T06:27:03;12.80;99.90
47114;DHT22;32867;51.556;6.832;2023-08-07T06:32:04;12.70;99.90
47114;DHT22;32867;51.556;6.832;2023-08-07T06:37:05;12.80;99.90
47114;DHT22;32867;51.556;6.832;2023-08-07T06:42:06;12.90;99.90
47114;DHT22;32867;51.556;6.832;2023-08-07T06:47:09;13.00;99.90
47114;DHT22;32867;51.556;6.832;2023-08-07T06:52:10;13.00;99.90
47114;DHT22;32867;51.556;6.832;2023-08-07T06:57:11;13.10;99.90
47114;DHT22;32867;51.556;6.832;2023-08-07T07:02:13;13.10;99.90
47114;DHT22;32867;51.556;6.832;2023-08-07T07:07:13;13.20;99.90
47114;DHT22;32867;51.556;6.832;2023-08-07T07:12:14;13.20;99.90
47114;DHT22;32867;51.556;6.832;2023-08-07T07:17:15;13.20;99.90
47114;DHT22;32867;51.556;6.832;2023-08-07T07:22:15;13.20;99.90
47114;DHT22;32867;51.556;6.832;2023-08-07T07:27:16;13.30;99.90
47114;DHT22;32867;51.556;6.832;2023-08-07T07:32:17;13.20;99.90
47114;DHT22;32867;51.556;6.832;2023-08-07T07:37:17;13.30;99.90
47114;DHT22;32867;51.556;6.832;2023-08-07T07:42:18;13.30;99.90
47114;DHT22;32867;51.556;6.832;2023-08-07T07:47:18;13.30;99.90
47114;DHT22;32867;51.556;6.832;2023-08-07T07:52:19;13.30;99.90
47114;DHT22;32867;51.556;6.832;2023-08-07T07:57:23;13.30;99.90
47114;DHT22;32867;51.556;6.832;2023-08-07T08:02:23;13.40;99.90
47114;DHT22;32867;51.556;6.832;2023-08-07T08:07:24;13.30;99.90
47114;DHT22;32867;51.556;6.832;2023-08-07T08:12:25;13.30;99.90
47114;DHT22;32867;51.556;6.832;2023-08-07T08:17:26;13.60;99.90
47114;DHT22;32867;51.556;6.832;2023-08-07T08:22:26;13.80;99.90
47114;DHT22;32867;51.556;6.832;2023-08-07T08:27:27;13.80;99.90
47114;DHT22;32867;51.556;6.832;2023-08-07T08:32:28;14.00;99.90
47114;DHT22;32867;51.556;6.832;2023-08-07T08:37:28;14.10;99.90
47114;DHT22;32867;51.556;6.832;2023-08-07T08:42:29;14.30;99.90
47114;DHT22;32867;51.556;6.832;2023-08-07T08:47:32;14.30;99.90
47114;DHT22;32867;51.556;6.832;2023-08-07T08:52:37;14.40;99.90
47114;DHT22;32867;51.556;6.832;2023-08-07T08:57:39;14.70;99.90
47114;DHT22;32867;51.556;6.832;2023-08-07T09:02:41;14.90;99.90
47114;DHT22;32867;51.556;6.832;2023-08-07T09:07:43;15.00;99.90
47114;DHT22;32867;51.556;6.832;2023-08-07T09:13:09;15.00;99.90
47114;DHT22;32867;51.556;6.832;2023-08-07T09:18:11;15.60;99.90
47114;DHT22;32867;51.556;6.832;2023-08-07T09:23:12;15.60;99.90
47114;DHT22;32867;51.556;6.832;2023-08-07T09:28:13;15.50;99.90
47114;DHT22;32867;51.556;6.832;2023-08-07T09:33:14;15.20;99.90
47114;DHT22;32867;51.556;6.832;2023-08-07T09:38:16;14.80;99.90
47114;DHT22;32867;51.556;6.832;2023-08-07T09:43:23;14.40;99.90
47114;DHT22;32867;51.556;6.832;2023-08-07T09:48:24;14.50;99.90
47114;DHT22;32867;51.556;6.832;2023-08-07T09:53:30;14.70;99.90
47114;DHT22;32867;51.556;6.832;2023-08-07T09:58:31;15.10;99.90
47114;DHT22;32867;51.556;6.832;2023-08-07T10:03:32;15.40;99.90
47114;DHT22;32867;51.556;6.832;2023-08-07T10:08:34;15.10;99.90
47114;DHT22;32867;51.556;6.832;2023-08-07T10:13:37;15.30;99.90
47114;DHT22;32867;51.556;6.832;2023-08-07T10:18:37;15.20;99.90
47114;DHT22;32867;51.556;6.832;2023-08-07T10:23:38;15.70;99.90
47114;DHT22;32867;51.556;6.832;2023-08-07T10:28:40;16.00;99.90
47114;DHT22;32867;51.556;6.832;2023-08-07T10:33:42;15.70;99.90
47114;DHT22;32867;51.556;6.832;2023-08-07T10:38:43;15.40;99.90
47114;DHT22;32867;51.556;6.832;2023-08-07T10:43:45;15.50;99.90
47114;DHT22;32867;51.556;6.832;2023-08-07T10:48:47;15.90;99.90
47114;DHT22;32867;51.556;6.832;2023-08-07T10:53:55;16.00;99.90
47114;DHT22;32867;51.556;6.832;2023-08-07T10:58:57;16.20;99.90
47114;DHT22;32867;51.556;6.832;2023-08-07T11:03:59;16.90;99.90
47114;DHT22;32867;51.556;6.832;2023-08-07T11:09:02;17.20;99.90
47114;DHT22;32867;51.556;6.832;2023-08-07T11:14:06;17.40;99.90
47114;DHT22;32867;51.556;6.832;2023-08-07T11:19:08;17.10;99.90
47114;DHT22;32867;51.556;6.832;2023-08-07T11:24:11;17.10;99.90
47114;DHT22;32867;51.556;6.832;2023-08-07T11:29:18;17.40;99.90
47114;DHT22;32867;51.556;6.832;2023-08-07T11:34:20;17.10;99.90
47114;DHT22;32867;51.556;6.832;2023-08-07T11:39:21;17.20;99.90
47114;DHT22;32867;51.556;6.832;2023-08-07T11:44:22;17.00;99.90
47114;DHT22;32867;51.556;6.832;2023-08-07T11:49:23;17.80;99.90
47114;DHT22;32867;51.556;6.832;2023-08-07T11:54:24;17.90;99.90
47114;DHT22;32867;51.556;6.832;2023-08-07T11:59:26;17.90;99.90
47114;DHT22;32867;51.556;6.832;2023-08-07T12:04:31;17.90;99.90
47114;DHT22;32867;51.556;6.832;2023-08-07T12:09:38;18.10;99.90
47114;DHT22;32867;51.556;6.832;2023-08-07T12:14:39;18.40;99.90
47114;DHT22;32867;51.556;6.832;2023-08-07T12:19:41;18.60;99.90
47114;DHT22;32867;51.556;6.832;2023-08-07T12:24:43;17.90;99.90
47114;DHT22;32867;51.556;6.832;2023-08-07T12:29:45;17.50;99.90
47114;DHT22;32867;51.556;6.832;2023-08-07T12:34:46;17.80;99.90
47114;DHT22;32867;51.556;6.832;2023-08-07T12:39:50;18.10;99.90
47114;DHT22;32867;51.556;6.832;2023-08-07T12:44:54;18.00;99.90
47114;DHT22;32867;51.556;6.832;2023-08-07T12:49:55;17.60;99.90
47114;DHT22;32867;51.556;6.832;2023-08-07T12:54:55;17.50;99.90
47114;DHT22;32867;51.556;6.832;2023-08-07T12:59:56;17.90;99.90
47114;DHT22;32867;51.556;6.832;2023-08-07T13:04:57;18.30;99.90
47114;DHT22;32867;51.556;6.832;2023-08-07T13:09:57;18.60;99.90
47114;DHT22;32867;51.556;6.832;2023-08-07T13:14:58;19.50;99.90
47114;DHT22;32867;51.556;6.832;2023-08-07T13:20:00;19.80;99.90
47114;DHT22;32867;51.556;6.832;2023-08-07T13:25:01;19.50;99.90
47114;DHT22;32867;51.556;6.832;2023-08-07T13:30:04;19.20;99.90
47114;DHT22;32867;51.556;6.832;2023-08-07T13:35:06;19.20;99.90
47114;DHT22;32867;51.556;6.832;2023-08-07T13:40:07;19.10;99.90
47114;DHT22;32867;51.556;6.832;2023-08-07T13:45:09;18.90;99.90
47114;DHT22;32867;51.556;6.832;2023-08-07T13:50:10;18.90;99.90
47114;DHT22;32867;51.556;6.832;2023-08-07T13:55:13;18.60;99.90
47114;DHT22;32867;51.556;6.832;2023-08-07T14:00:14;19.10;99.90
47114;DHT22;32867;51.556;6.832;2023-08-07T14:05:15;18.70;99.90
47114;DHT22;32867;51.556;6.832;2023-08-07T14:10:16;19.00;99.90
47114;DHT22;32867;51.556;6.832;2023-08-07T14:15:16;19.20;99.90
47114;DHT22;32867;51.556;6.832;2023-08-07T14:20:17;19.50;99.90
47114;DHT22;32867;51.556;6.832;2023-08-07T14:25:18;19.50;99.90
47114;DHT22;32867;51.556;6.832;2023-08-07T14:30:19;19.50;99.90
47114;DHT22;32867;51.556;6.832;2023-08-07T14:35:19;19.30;99.90
47114;DHT22;32867;51.556;6.832;2023-08-07T14:40:20;20.40;99.90
47114;DHT22;32867;51.556;6.832;2023-08-07T14:45:21;20.40;99.90
47114;DHT22;32867;51.556;6.832;2023-08-07T14:50:24;21.00;99.90
47114;DHT22;32867;51.556;6.832;2023-08-07T14:55:24;21.20;99.90
47114;DHT22;32867;51.556;6.832;2023-08-07T15:00:25;21.00;98.90
47114;DHT22;32867;51.556;6.832;2023-08-07T15:05:26;21.20;95.20
47114;DHT22;32867;51.556;6.832;2023-08-07T15:10:27;20.90;94.10
47114;DHT22;32867;51.556;6.832;2023-08-07T15:15:27;20.50;91.60
47114;DHT22;32867;51.556;6.832;2023-08-07T15:20:29;20.50;93.70
47114;DHT22;32867;51.556;6.832;2023-08-07T15:25:31;19.70;95.40
47114;DHT22;32867;51.556;6.832;2023-08-07T15:30:32;19.30;96.10
47114;DHT22;32867;51.556;6.832;2023-08-07T15:35:33;18.60;96.60
47114;DHT22;32867;51.556;6.832;2023-08-07T15:40:33;18.80;98.20
47114;DHT22;32867;51.556;6.832;2023-08-07T15:45:34;18.60;98.10
47114;DHT22;32867;51.556;6.832;2023-08-07T15:50:35;18.30;99.80
47114;DHT22;32867;51.556;6.832;2023-08-07T15:55:39;18.30;99.80
47114;DHT22;32867;51.556;6.832;2023-08-07T16:00:39;19.00;99.90
47114;DHT22;32867;51.556;6.832;2023-08-07T16:05:40;19.40;99.90
47114;DHT22;32867;51.556;6.832;2023-08-07T16:10:41;20.00;99.90
47114;DHT22;32867;51.556;6.832;2023-08-07T16:15:44;19.10;99.90
47114;DHT22;32867;51.556;6.832;2023-08-07T16:20:45;18.40;99.90
47114;DHT22;32867;51.556;6.832;2023-08-07T16:25:46;18.10;99.90
47114;DHT22;32867;51.556;6.832;2023-08-07T16:30:47;17.90;99.90
47114;DHT22;32867;51.556;6.832;2023-08-07T16:35:47;18.10;99.90
47114;DHT22;32867;51.556;6.832;2023-08-07T16:40:48;18.30;99.90
47114;DHT22;32867;51.556;6.832;2023-08-07T16:45:48;18.70;99.90
47114;DHT22;32867;51.556;6.832;2023-08-07T16:50:49;18.40;99.90
47114;DHT22;32867;51.556;6.832;2023-08-07T16:55:51;18.90;99.90
47114;DHT22;32867;51.556;6.832;2023-08-07T17:00:52;20.00;99.90
47114;DHT22;32867;51.556;6.832;2023-08-07T17:05:53;24.20;97.20
47114;DHT22;32867;51.556;6.832;2023-08-07T17:10:53;21.50;97.40
47114;DHT22;32867;51.556;6.832;2023-08-07T17:15:54;18.60;99.90
47114;DHT22;32867;51.556;6.832;2023-08-07T17:20:55;18.20;99.90
47114;DHT22;32867;51.556;6.832;2023-08-07T17:25:59;17.80;99.90
47114;DHT22;32867;51.556;6.832;2023-08-07T17:31:02;17.60;99.90
47114;DHT22;32867;51.556;6.832;2023-08-07T17:36:04;20.70;99.90
47114;DHT22;32867;51.556;6.832;2023-08-07T17:41:04;22.40;98.50
47114;DHT22;32867;51.556;6.832;2023-08-07T17:46:05;20.60;99.90
47114;DHT22;32867;51.556;6.832;2023-08-07T17:51:09;22.80;98.50
47114;DHT22;32867;51.556;6.832;2023-08-07T17:56:10;22.40;98.30
47114;DHT22;32867;51.556;6.832;2023-08-07T18:01:11;24.40;95.50
47114;DHT22;32867;51.556;6.832;2023-08-07T18:06:11;22.90;96.20
47114;DHT22;32867;51.556;6.832;2023-08-07T18:11:14;22.90;96.00
47114;DHT22;32867;51.556;6.832;2023-08-07T18:16:17;23.10;95.80
47114;DHT22;32867;51.556;6.832;2023-08-07T18:21:18;21.90;97.70
47114;DHT22;32867;51.556;6.832;2023-08-07T18:26:19;22.50;97.10
47114;DHT22;32867;51.556;6.832;2023-08-07T18:31:21;21.30;99.70
47114;DHT22;32867;51.556;6.832;2023-08-07T18:36:25;19.50;99.90
47114;DHT22;32867;51.556;6.832;2023-08-07T18:41:26;20.90;99.90
47114;DHT22;32867;51.556;6.832;2023-08-07T18:46:27;20.00;99.90
47114;DHT22;32867;51.556;6.832;2023-08-07T18:51:29;19.60;99.90
47114;DHT22;32867;51.556;6.832;2023-08-07T18:56:30;19.60;99.90
47114;DHT22;32867;51.556;6.832;2023-08-07T19:01:32;18.60;99.90
47114;DHT22;32867;51.556;6.832;2023-08-07T19:06:33;17.40;99.90
47114;DHT22;32867;51.556;6.832;2023-08-07T19:11:35;16.90;99.90
47114;DHT22;32867;51.556;6.832;2023-08-07T19:16:38;16.70;99.90
47114;DHT22;32867;51.556;6.832;2023-08-07T19:21:45;16.60;99.90
47114;DHT22;32867;51.556;6.832;2023-08-07T19:26:45;16.30;99.90
47114;DHT22;32867;51.556;6.832;2023-08-07T19:31:46;16.30;99.90
47114;DHT22;32867;51.556;6.832;2023-08-07T19:36:47;16.00;99.90
47114;DHT22;32867;51.556;6.832;2023-08-07T19:41:51;15.80;99.90
47114;DHT22;32867;51.556;6.832;2023-08-07T19:46:51;15.90;99.90
47114;DHT22;32867;51.556;6.832;2023-08-07T19:51:52;15.80;99.90
47114;DHT22;32867;51.556;6.832;2023-08-07T19:56:53;15.60;99.90
47114;DHT22;32867;51.556;6.832;2023-08-07T20:01:53;15.50;99.90
47114;DHT22;32867;51.556;6.832;2023-08-07T20:06:55;15.40;99.90
47114;DHT22;32867;51.556;6.832;2023-08-07T20:11:56;15.20;99.90
47114;DHT22;32867;51.556;6.832;2023-08-07T20:16:57;15.30;99.90
47114;DHT22;32867;51.556;6.832;2023-08-07T20:21:58;15.20;99.90
47114;DHT22;32867;51.556;6.832;2023-08-07T20:26:59;15.20;99.90
47114;DHT22;32867;51.556;6.832;2023-08-07T20:32:00;15.10;99.90
47114;DHT22;32867;51.556;6.832;2023-08-07T20:37:05;15.00;99.90
47114;DHT22;32867;51.556;6.832;2023-08-07T20:42:07;15.10;99.90
47114;DHT22;32867;51.556;6.832;2023-08-07T20:47:09;15.00;99.90
47114;DHT22;32867;51.556;6.832;2023-08-07T20:52:10;14.80;99.90
47114;DHT22;32867;51.556;6.832;2023-08-07T20:57:11;14.90;99.90
47114;DHT22;32867;51.556;6.832;2023-08-07T21:02:11;14.90;99.90
47114;DHT22;32867;51.556;6.832;2023-08-07T21:07:15;15.00;99.90
47114;DHT22;32867;51.556;6.832;2023-08-07T21:12:16;15.00;99.90
47114;DHT22;32867;51.556;6.832;2023-08-07T21:17:17;14.90;99.90
47114;DHT22;32867;51.556;6.832;2023-08-07T21:22:18;14.80;99.90
47114;DHT22;32867;51.556;6.832;2023-08-07T21:27:18;14.90;99.90
47114;DHT22;32867;51.556;6.832;2023-08-07T21:32:21;15.00;99.90
47114;DHT22;32867;51.556;6.832;2023-08-07T21:37:28;15.00;99.90
47114;DHT22;32867;51.556;6.832;2023-08-07T21:42:29;14.90;99.90
47114;DHT22;32867;51.556;6.832;2023-08-07T21:47:29;14.90;99.90
47114;DHT22;32867;51.556;6.832;2023-08-07T21:52:30;14.70;99.90
47114;DHT22;32867;51.556;6.832;2023-08-07T21:57:32;14.60;99.90
47114;DHT22;32867;51.556;6.832;2023-08-07T22:02:33;14.80;99.90
47114;DHT22;32867;51.556;6.832;2023-08-07T22:07:34;15.10;99.90
47114;DHT22;32867;51.556;6.832;2023-08-07T22:12:36;15.50;99.90
47114;DHT22;32867;51.556;6.832;2023-08-07T22:17:36;15.30;99.90
47114;DHT22;32867;51.556;6.832;2023-08-07T22:22:37;15.30;99.90
47114;DHT22;32867;51.556;6.832;2023-08-07T22:27:38;15.00;99.90
47114;DHT22;32867;51.556;6.832;2023-08-07T22:32:39;14.80;99.90
47114;DHT22;32867;51.556;6.832;2023-08-07T22:37:40;14.90;99.90
47114;DHT22;32867;51.556;6.832;2023-08-07T22:42:42;14.90;99.90
47114;DHT22;32867;51.556;6.832;2023-08-07T22:47:43;15.00;99.90
47114;DHT22;32867;51.556;6.832;2023-08-07T22:52:43;15.00;99.90
47114;DHT22;32867;51.556;6.832;2023-08-07T22:57:44;15.00;99.90
47114;DHT22;32867;51.556;6.832;2023-08-07T23:02:46;14.90;99.90
47114;DHT22;32867;51.556;6.832;2023-08-07T23:07:47;15.10;99.90
47114;DHT22;32867;51.556;6.832;2023-08-07T23:12:49;15.10;99.90
47114;DHT22;32867;51.556;6.832;2023-08-07T23:17:52;15.20;99.90
47114;DHT22;32867;51.556;6.832;2023-08-07T23:22:53;15.20;99.90
47114;DHT22;32867;51.556;6.832;2023-08-07T23:27:55;15.10;99.90
47114;DHT22;32867;51.556;6.832;2023-08-07T23:32:55;15.20;99.90
47114;DHT22;32867;51.556;6.832;2023-08-07T23:37:56;15.20;99.90
47114;DHT22;32867;51.556;6.832;2023-08-07T23:42:57;15.20;99.90
47114;DHT22;32867;51.556;6.832;2023-08-07T23:47:59;15.30;99.90
47114;DHT22;32867;51.556;6.832;2023-08-07T23:52:59;15.20;99.90
47114;DHT22;32867;51.556;6.832;2023-08-07T23:58:00;15.30;99.90
